Time;durP1;ratioP1;P1;durP2;ratioP2;P2;SDS_P1;SDS_P2;PMS_P1;PMS_P2;Temp;Humidity;BMP_temperature;BMP_pressure;BME280_temperature;BME280_humidity;BME280_pressure;Samples;Min_cycle;Max_cycle;Signal;HPM_P1;HPM_P2
2021/12/18 00:00:21;;;;;;;8.30;2.97;;;;;;;;;;5073205;28;20028;-61
2021/12/18 00:02:47;;;;;;;11.48;3.13;;;;;;;;;;5073386;28;20047;-65
2021/12/18 00:05:13;;;;;;;8.07;2.83;;;;;;;;;;5073225;28;20063;-61
2021/12/18 00:07:39;;;;;;;8.43;3.05;;;;;;;;;;5073195;28;20397;-67
2021/12/18 00:10:05;;;;;;;8.77;2.70;;;;;;;;;;5071546;28;20467;-67
2021/12/18 00:12:32;;;;;;;7.50;3.08;;;;;;;;;;5072666;28;20021;-67
2021/12/18 00:14:58;;;;;;;8.05;2.92;;;;;;;;;;5071940;28;20055;-61
2021/12/18 00:17:24;;;;;;;8.18;2.58;;;;;;;;;;5072793;28;20052;-74
2021/12/18 00:19:50;;;;;;;8.70;2.72;;;;;;;;;;5072471;28;20027;-72
2021/12/18 00:22:16;;;;;;;8.75;2.97;;;;;;;;;;5072922;28;20088;-73
2021/12/18 00:24:42;;;;;;;10.25;3.22;;;;;;;;;;5072923;28;20020;-76
2021/12/18 00:27:08;;;;;;;8.00;3.17;;;;;;;;;;5091333;28;20073;-81
2021/12/18 00:29:34;;;;;;;10.00;2.88;;;;;;;;;;5093145;28;20031;-80
2021/12/18 00:32:00;;;;;;;6.43;2.63;;;;;;;;;;5093474;28;20028;-83
2021/12/18 00:34:26;;;;;;;6.72;2.97;;;;;;;;;;5092006;28;20039;-81
2021/12/18 00:36:52;;;;;;;7.97;2.90;;;;;;;;;;5093295;28;20025;-79
2021/12/18 00:39:18;;;;;;;8.70;2.90;;;;;;;;;;5092981;28;20024;-79
2021/12/18 00:44:13;;;;;;;5.32;2.85;;;;;;;;;;5092869;28;20434;-79
2021/12/18 00:46:43;;;;;;;8.60;2.70;;;;;;;;;;5092987;28;20073;-85
2021/12/18 00:49:11;;;;;;;6.32;3.08;;;;;;;;;;5093894;28;20380;-80
2021/12/18 00:51:37;;;;;;;6.80;2.65;;;;;;;;;;5093283;28;20016;-83
2021/12/18 00:54:03;;;;;;;6.15;2.67;;;;;;;;;;5091863;28;20036;-84
2021/12/18 00:56:29;;;;;;;6.25;2.85;;;;;;;;;;5091740;28;20020;-80
2021/12/18 00:58:55;;;;;;;9.30;3.15;;;;;;;;;;5093011;28;20361;-77
2021/12/18 01:01:23;;;;;;;7.53;2.92;;;;;;;;;;5093166;28;20027;-82
2021/12/18 01:03:49;;;;;;;8.40;3.15;;;;;;;;;;5093043;28;20106;-79
2021/12/18 01:06:16;;;;;;;7.30;2.90;;;;;;;;;;5092576;28;20070;-81
2021/12/18 01:08:42;;;;;;;7.25;2.85;;;;;;;;;;5093304;28;20017;-84
2021/12/18 01:11:29;;;;;;;8.55;3.13;;;;;;;;;;5093208;28;20388;-84
2021/12/18 01:16:38;;;;;;;8.05;3.15;;;;;;;;;;5092515;28;20070;-82
2021/12/18 01:24:33;;;;;;;8.07;2.78;;;;;;;;;;5090657;28;20063;-68
2021/12/18 01:26:59;;;;;;;6.97;3.03;;;;;;;;;;5092085;28;20081;-71
2021/12/18 01:29:25;;;;;;;6.35;2.63;;;;;;;;;;5092149;28;20024;-74
2021/12/18 01:31:51;;;;;;;6.70;2.95;;;;;;;;;;5092510;28;20028;-78
2021/12/18 01:34:17;;;;;;;8.65;3.00;;;;;;;;;;5091944;28;20481;-68
2021/12/18 01:36:43;;;;;;;8.93;3.00;;;;;;;;;;5092073;28;20354;-63
2021/12/18 01:39:10;;;;;;;8.02;2.88;;;;;;;;;;5091885;28;20016;-67
2021/12/18 01:41:54;;;;;;;9.68;3.22;;;;;;;;;;5090570;28;20048;-62
2021/12/18 01:51:11;;;;;;;8.68;3.38;;;;;;;;;;5091735;28;20492;-62
2021/12/18 01:52:32;;;;;;;9.10;3.45;;;;;;;;;;5092943;28;20046;-87
2021/12/18 01:54:58;;;;;;;6.80;3.10;;;;;;;;;;5091829;28;20063;-62
2021/12/18 01:57:24;;;;;;;8.50;3.28;;;;;;;;;;5090365;28;20384;-66
2021/12/18 01:59:51;;;;;;;7.55;3.00;;;;;;;;;;5091450;28;20024;-65
2021/12/18 02:02:18;;;;;;;10.02;3.33;;;;;;;;;;5091453;28;20016;-61
2021/12/18 02:04:44;;;;;;;9.85;3.78;;;;;;;;;;5077654;28;20116;-83
2021/12/18 02:07:11;;;;;;;7.57;3.30;;;;;;;;;;5071053;28;20074;-79
2021/12/18 02:10:03;;;;;;;8.05;3.55;;;;;;;;;;5088822;28;20110;-62
2021/12/18 02:12:30;;;;;;;7.70;3.30;;;;;;;;;;5090648;28;20034;-65
2021/12/18 02:20:24;;;;;;;9.65;3.38;;;;;;;;;;5074952;28;20050;-66
2021/12/18 02:22:52;;;;;;;8.75;3.75;;;;;;;;;;5070720;28;20021;-63
2021/12/18 02:25:20;;;;;;;12.02;3.45;;;;;;;;;;5071424;28;20085;-66
2021/12/18 02:27:48;;;;;;;9.55;3.25;;;;;;;;;;5088281;28;20361;-62
2021/12/18 02:30:14;;;;;;;8.27;3.47;;;;;;;;;;5091009;28;20016;-62
2021/12/18 02:32:40;;;;;;;9.32;3.50;;;;;;;;;;5089730;28;20048;-62
2021/12/18 02:35:09;;;;;;;8.25;3.20;;;;;;;;;;5091014;28;20530;-63
2021/12/18 02:37:40;;;;;;;8.38;3.47;;;;;;;;;;5094634;28;20499;-62
2021/12/18 02:42:52;;;;;;;9.02;3.65;;;;;;;;;;5095396;28;20027;-64
2021/12/18 02:45:19;;;;;;;9.18;3.10;;;;;;;;;;5095173;28;20027;-71
2021/12/18 02:47:48;;;;;;;9.95;3.35;;;;;;;;;;5095497;28;20032;-61
2021/12/18 02:50:14;;;;;;;5.80;2.95;;;;;;;;;;5095039;28;20069;-64
2021/12/18 02:52:40;;;;;;;7.35;3.10;;;;;;;;;;5093741;28;20048;-66
2021/12/18 02:55:07;;;;;;;9.95;3.40;;;;;;;;;;5093606;28;20040;-67
2021/12/18 02:57:33;;;;;;;11.38;4.00;;;;;;;;;;5094801;28;20683;-63
2021/12/18 03:00:00;;;;;;;9.20;3.35;;;;;;;;;;5094785;28;20020;-64
2021/12/18 03:02:27;;;;;;;9.65;3.65;;;;;;;;;;5094789;28;20070;-70
2021/12/18 03:04:58;;;;;;;8.77;3.33;;;;;;;;;;5094836;28;20349;-67
2021/12/18 03:07:26;;;;;;;8.68;3.60;;;;;;;;;;5093739;28;20024;-70
2021/12/18 03:19:04;;;;;;;9.05;3.47;;;;;;;;;;5094748;28;20042;-61
2021/12/18 03:23:39;;;;;;;6.95;3.40;;;;;;;;;;5074073;28;20020;-62
2021/12/18 03:26:05;;;;;;;9.02;3.45;;;;;;;;;;5073912;28;20052;-75
2021/12/18 03:28:31;;;;;;;9.55;3.75;;;;;;;;;;5074062;28;20024;-61
2021/12/18 03:30:58;;;;;;;6.50;3.10;;;;;;;;;;5073689;28;20520;-65
2021/12/18 03:33:25;;;;;;;6.57;3.30;;;;;;;;;;5073888;28;20025;-81
2021/12/18 03:35:51;;;;;;;9.02;4.05;;;;;;;;;;5073814;28;20040;-67
2021/12/18 03:38:17;;;;;;;8.70;3.33;;;;;;;;;;5073896;28;20016;-64
2021/12/18 03:40:43;;;;;;;7.43;3.25;;;;;;;;;;5073473;28;20167;-67
2021/12/18 03:43:09;;;;;;;7.47;3.20;;;;;;;;;;5074065;28;20052;-73
2021/12/18 03:45:35;;;;;;;8.40;3.60;;;;;;;;;;5074036;28;20029;-64
2021/12/18 03:48:01;;;;;;;6.93;3.38;;;;;;;;;;5073229;28;20021;-65
2021/12/18 03:50:27;;;;;;;9.75;3.58;;;;;;;;;;5073986;28;20050;-64
2021/12/18 03:52:55;;;;;;;12.18;3.85;;;;;;;;;;5073850;28;20027;-66
2021/12/18 03:55:21;;;;;;;8.77;3.33;;;;;;;;;;5073812;28;20126;-62
2021/12/18 03:57:47;;;;;;;7.00;3.28;;;;;;;;;;5073834;28;20025;-77
2021/12/18 04:00:15;;;;;;;8.50;3.10;;;;;;;;;;5073080;28;20385;-66
2021/12/18 04:02:41;;;;;;;9.05;3.38;;;;;;;;;;5074272;28;20078;-63
2021/12/18 04:05:08;;;;;;;8.20;3.38;;;;;;;;;;5074561;28;20417;-69
2021/12/18 04:07:40;;;;;;;8.48;3.60;;;;;;;;;;5073755;28;20555;-65
2021/12/18 04:10:07;;;;;;;7.03;3.03;;;;;;;;;;5074042;28;20046;-84
2021/12/18 04:12:33;;;;;;;9.00;3.38;;;;;;;;;;5074812;28;20020;-73
2021/12/18 04:14:59;;;;;;;7.40;3.13;;;;;;;;;;5073499;28;20052;-76
2021/12/18 04:17:25;;;;;;;12.05;3.72;;;;;;;;;;5073476;28;20043;-64
2021/12/18 04:19:51;;;;;;;7.40;3.13;;;;;;;;;;5073216;28;20017;-73
2021/12/18 04:22:17;;;;;;;8.32;3.20;;;;;;;;;;5073130;28;20095;-61
2021/12/18 04:24:43;;;;;;;9.52;3.40;;;;;;;;;;5072983;28;20052;-61
2021/12/18 04:27:09;;;;;;;11.85;3.63;;;;;;;;;;5078558;28;20042;-73
2021/12/18 04:29:35;;;;;;;21.60;3.60;;;;;;;;;;5093289;28;20421;-66
2021/12/18 04:32:01;;;;;;;9.73;3.28;;;;;;;;;;5081806;28;20048;-63
2021/12/18 04:34:28;;;;;;;12.88;3.65;;;;;;;;;;5072471;28;20040;-69
2021/12/18 04:36:54;;;;;;;8.18;3.38;;;;;;;;;;5070805;28;20024;-68
2021/12/18 04:39:20;;;;;;;8.38;3.58;;;;;;;;;;5072468;28;20025;-61
2021/12/18 04:41:51;;;;;;;7.78;3.50;;;;;;;;;;5072455;28;20104;-62
2021/12/18 04:44:18;;;;;;;7.17;3.13;;;;;;;;;;5072361;28;20021;-63
2021/12/18 04:46:44;;;;;;;10.02;3.72;;;;;;;;;;5072223;28;20036;-61
2021/12/18 04:49:10;;;;;;;9.02;3.63;;;;;;;;;;5072370;28;20118;-61
2021/12/18 04:51:36;;;;;;;9.60;3.42;;;;;;;;;;5070870;28;20027;-64
2021/12/18 04:54:02;;;;;;;7.82;3.53;;;;;;;;;;5071948;28;20153;-70
2021/12/18 04:56:29;;;;;;;8.32;3.60;;;;;;;;;;5072245;28;20028;-71
2021/12/18 04:58:55;;;;;;;10.10;3.20;;;;;;;;;;5072052;28;20027;-74
2021/12/18 05:01:21;;;;;;;7.43;3.38;;;;;;;;;;5072288;28;20027;-66
2021/12/18 05:03:49;;;;;;;7.25;3.17;;;;;;;;;;5072580;28;20059;-76
2021/12/18 05:06:15;;;;;;;8.05;3.58;;;;;;;;;;5072861;28;20615;-66
2021/12/18 05:08:41;;;;;;;6.55;3.10;;;;;;;;;;5072922;28;20495;-63
2021/12/18 05:11:07;;;;;;;10.95;3.58;;;;;;;;;;5072463;28;20035;-66
2021/12/18 05:13:33;;;;;;;9.38;3.88;;;;;;;;;;5071920;28;20123;-66
2021/12/18 05:15:59;;;;;;;7.40;3.15;;;;;;;;;;5072136;28;20504;-71
2021/12/18 05:18:25;;;;;;;9.00;3.67;;;;;;;;;;5072236;28;20071;-61
2021/12/18 05:20:51;;;;;;;7.53;2.97;;;;;;;;;;5072694;28;20461;-74
2021/12/18 05:23:18;;;;;;;9.15;3.67;;;;;;;;;;5072047;28;20056;-64
2021/12/18 05:25:44;;;;;;;9.07;3.20;;;;;;;;;;5072355;28;20072;-65
2021/12/18 05:28:10;;;;;;;6.80;2.97;;;;;;;;;;5070751;28;20027;-67
2021/12/18 05:30:36;;;;;;;7.05;3.28;;;;;;;;;;5071642;28;20082;-71
2021/12/18 05:33:02;;;;;;;6.18;3.20;;;;;;;;;;5071964;28;20111;-76
2021/12/18 05:35:30;;;;;;;8.15;3.45;;;;;;;;;;5071535;28;20066;-65
2021/12/18 05:38:04;;;;;;;7.72;3.20;;;;;;;;;;5071758;28;20397;-68
2021/12/18 05:40:31;;;;;;;8.75;3.35;;;;;;;;;;5071891;28;20017;-60
2021/12/18 05:42:57;;;;;;;8.77;3.15;;;;;;;;;;5071904;28;20021;-61
2021/12/18 05:45:23;;;;;;;7.63;3.15;;;;;;;;;;5071744;28;20021;-67
2021/12/18 05:47:49;;;;;;;7.82;3.30;;;;;;;;;;5071679;28;20021;-81
2021/12/18 05:50:16;;;;;;;8.32;3.53;;;;;;;;;;5071550;28;20016;-62
2021/12/18 05:52:44;;;;;;;10.00;3.60;;;;;;;;;;5071410;28;20547;-63
2021/12/18 05:55:10;;;;;;;7.30;3.25;;;;;;;;;;5071640;28;20032;-76
2021/12/18 05:57:36;;;;;;;6.68;3.10;;;;;;;;;;5071681;28;20095;-69
2021/12/18 06:00:05;;;;;;;7.13;3.10;;;;;;;;;;5071579;28;20028;-62
2021/12/18 06:02:31;;;;;;;5.47;2.72;;;;;;;;;;5071539;28;20421;-61
2021/12/18 06:04:57;;;;;;;6.03;3.22;;;;;;;;;;5070093;28;20024;-62
2021/12/18 06:07:31;;;;;;;7.28;3.05;;;;;;;;;;5071566;28;20024;-62
2021/12/18 06:09:58;;;;;;;8.90;3.17;;;;;;;;;;5071392;28;20021;-61
2021/12/18 06:12:24;;;;;;;8.52;3.53;;;;;;;;;;5071156;28;20082;-62
2021/12/18 06:14:50;;;;;;;7.63;3.03;;;;;;;;;;5070092;28;20566;-61
2021/12/18 06:17:16;;;;;;;7.28;3.03;;;;;;;;;;5071644;28;20474;-68
2021/12/18 06:19:42;;;;;;;8.40;3.40;;;;;;;;;;5071327;28;20028;-62
2021/12/18 06:22:08;;;;;;;8.30;3.15;;;;;;;;;;5071226;28;20027;-62
2021/12/18 06:24:34;;;;;;;9.05;3.00;;;;;;;;;;5070076;28;20119;-74
2021/12/18 06:27:00;;;;;;;16.52;3.35;;;;;;;;;;5071924;28;20125;-66
2021/12/18 06:29:26;;;;;;;7.05;2.97;;;;;;;;;;5088874;28;20031;-63
2021/12/18 06:31:52;;;;;;;9.27;3.42;;;;;;;;;;5083197;28;20044;-67
2021/12/18 06:34:19;;;;;;;8.50;2.97;;;;;;;;;;5070896;28;20495;-75
2021/12/18 06:36:45;;;;;;;8.02;3.38;;;;;;;;;;5069765;28;20052;-71
2021/12/18 06:39:11;;;;;;;9.13;3.10;;;;;;;;;;5071129;28;20019;-63
2021/12/18 06:41:37;;;;;;;7.00;3.15;;;;;;;;;;5071050;28;20388;-62
2021/12/18 06:44:03;;;;;;;8.00;3.15;;;;;;;;;;5071079;28;20032;-62
2021/12/18 06:46:29;;;;;;;9.70;3.25;;;;;;;;;;5070957;28;20092;-61
2021/12/18 06:48:55;;;;;;;7.55;2.97;;;;;;;;;;5069631;28;20039;-61
2021/12/18 06:51:21;;;;;;;6.38;2.80;;;;;;;;;;5071072;28;20044;-63
2021/12/18 06:53:48;;;;;;;7.53;2.90;;;;;;;;;;5070844;28;20499;-80
2021/12/18 06:56:14;;;;;;;8.07;3.00;;;;;;;;;;5070912;28;20029;-61
2021/12/18 06:58:40;;;;;;;8.88;3.78;;;;;;;;;;5070883;28;20017;-61
2021/12/18 07:01:06;;;;;;;9.35;3.20;;;;;;;;;;5070983;28;20021;-61
2021/12/18 07:03:34;;;;;;;7.03;2.85;;;;;;;;;;5070905;28;20755;-62
2021/12/18 07:06:00;;;;;;;6.75;2.65;;;;;;;;;;5070964;28;20032;-62
2021/12/18 07:08:26;;;;;;;8.30;2.72;;;;;;;;;;5071011;28;20469;-77
2021/12/18 07:10:52;;;;;;;8.63;3.22;;;;;;;;;;5070844;28;20025;-61
2021/12/18 07:13:18;;;;;;;17.67;3.17;;;;;;;;;;5070869;28;20048;-74
2021/12/18 07:15:44;;;;;;;6.32;3.00;;;;;;;;;;5070660;28;20052;-71
2021/12/18 07:18:10;;;;;;;6.80;2.83;;;;;;;;;;5070869;28;20024;-62
2021/12/18 07:20:36;;;;;;;7.65;2.95;;;;;;;;;;5070679;28;20024;-62
2021/12/18 07:23:02;;;;;;;6.65;2.60;;;;;;;;;;5071230;28;20373;-62
2021/12/18 07:25:29;;;;;;;8.30;3.03;;;;;;;;;;5072838;28;20374;-63
2021/12/18 07:27:55;;;;;;;6.68;2.40;;;;;;;;;;5074244;28;20475;-61
2021/12/18 07:30:21;;;;;;;5.13;1.95;;;;;;;;;;5073984;28;20024;-61
2021/12/18 07:32:47;;;;;;;7.07;2.50;;;;;;;;;;5074148;28;20492;-61
2021/12/18 07:35:14;;;;;;;5.20;2.30;;;;;;;;;;5072432;28;20037;-62
2021/12/18 07:37:40;;;;;;;5.82;2.33;;;;;;;;;;5073998;28;20023;-62
2021/12/18 07:40:07;;;;;;;7.05;2.78;;;;;;;;;;5074068;28;20028;-61
2021/12/18 07:42:33;;;;;;;7.35;2.72;;;;;;;;;;5073960;28;20021;-67
2021/12/18 07:44:59;;;;;;;5.32;2.55;;;;;;;;;;5073902;28;20025;-63
2021/12/18 07:47:25;;;;;;;7.18;3.08;;;;;;;;;;5073892;28;20016;-61
2021/12/18 07:49:52;;;;;;;8.43;2.53;;;;;;;;;;5073810;28;20384;-68
2021/12/18 07:52:18;;;;;;;7.93;2.55;;;;;;;;;;5073843;28;20433;-62
2021/12/18 07:54:44;;;;;;;6.80;3.30;;;;;;;;;;5073646;28;20032;-66
2021/12/18 07:57:10;;;;;;;5.38;2.38;;;;;;;;;;5073634;28;20096;-61
2021/12/18 07:59:36;;;;;;;12.07;3.33;;;;;;;;;;5073511;28;20020;-63
2021/12/18 08:02:04;;;;;;;9.02;2.80;;;;;;;;;;5073620;28;20531;-62
2021/12/18 08:04:30;;;;;;;8.10;2.53;;;;;;;;;;5073616;28;20035;-62
2021/12/18 08:06:57;;;;;;;8.13;3.13;;;;;;;;;;5073613;28;20020;-61
2021/12/18 08:09:23;;;;;;;6.70;2.45;;;;;;;;;;5073376;28;20153;-62
2021/12/18 08:11:49;;;;;;;7.20;2.60;;;;;;;;;;5073395;28;20025;-61
2021/12/18 08:14:15;;;;;;;7.53;2.78;;;;;;;;;;5073178;28;20048;-67
2021/12/18 08:16:41;;;;;;;6.55;2.55;;;;;;;;;;5073557;28;20020;-70
2021/12/18 08:19:07;;;;;;;7.18;2.83;;;;;;;;;;5073126;28;20509;-74
2021/12/18 08:21:33;;;;;;;6.85;2.30;;;;;;;;;;5073235;28;20021;-72
2021/12/18 08:23:59;;;;;;;7.32;2.55;;;;;;;;;;5073218;28;20021;-62
2021/12/18 08:26:25;;;;;;;5.97;2.58;;;;;;;;;;5073203;28;20047;-66
2021/12/18 08:28:51;;;;;;;6.43;2.38;;;;;;;;;;5079507;28;20027;-62
2021/12/18 08:31:17;;;;;;;6.47;2.35;;;;;;;;;;5093418;28;20024;-61
2021/12/18 08:33:44;;;;;;;7.55;2.90;;;;;;;;;;5090253;28;20034;-63
2021/12/18 08:36:10;;;;;;;6.20;2.50;;;;;;;;;;5093249;28;20484;-63
2021/12/18 08:38:36;;;;;;;6.65;2.55;;;;;;;;;;5093099;28;20104;-62
2021/12/18 08:41:02;;;;;;;5.20;2.25;;;;;;;;;;5092868;28;20099;-62
2021/12/18 08:43:28;;;;;;;6.60;2.40;;;;;;;;;;5093136;28;20024;-62
2021/12/18 08:45:54;;;;;;;6.70;2.13;;;;;;;;;;5093373;28;20091;-80
2021/12/18 08:48:21;;;;;;;9.75;1.80;;;;;;;;;;5093432;28;20077;-65
2021/12/18 08:50:48;;;;;;;9.43;2.67;;;;;;;;;;5093232;28;20055;-63
2021/12/18 08:53:14;;;;;;;8.10;3.00;;;;;;;;;;5092967;28;20028;-65
2021/12/18 08:55:40;;;;;;;6.60;2.30;;;;;;;;;;5092886;28;20434;-63
2021/12/18 08:58:06;;;;;;;8.02;2.35;;;;;;;;;;5092963;28;20020;-61
2021/12/18 09:00:33;;;;;;;7.63;2.90;;;;;;;;;;5092725;28;20031;-63
2021/12/18 09:03:00;;;;;;;7.25;2.50;;;;;;;;;;5092710;28;20020;-61
2021/12/18 09:05:27;;;;;;;11.98;2.65;;;;;;;;;;5092166;28;20496;-62
2021/12/18 09:07:53;;;;;;;7.55;2.13;;;;;;;;;;5092719;28;20031;-66
2021/12/18 09:10:20;;;;;;;9.48;2.45;;;;;;;;;;5092331;28;20092;-68
2021/12/18 09:12:46;;;;;;;9.35;2.80;;;;;;;;;;5092547;28;20012;-66
2021/12/18 09:15:12;;;;;;;9.23;2.60;;;;;;;;;;5092332;28;20158;-61
2021/12/18 09:17:39;;;;;;;5.57;2.17;;;;;;;;;;5092481;28;20031;-62
2021/12/18 09:20:05;;;;;;;8.35;2.67;;;;;;;;;;5092590;28;20051;-61
2021/12/18 09:22:32;;;;;;;9.88;2.67;;;;;;;;;;5090932;28;20024;-61
2021/12/18 09:24:59;;;;;;;6.88;2.65;;;;;;;;;;5091967;28;20028;-62
2021/12/18 09:27:25;;;;;;;6.93;2.50;;;;;;;;;;5091953;28;20103;-76
2021/12/18 09:29:51;;;;;;;8.18;2.60;;;;;;;;;;5092225;28;20035;-72
2021/12/18 09:32:17;;;;;;;8.50;2.50;;;;;;;;;;5092080;28;20016;-63
2021/12/18 09:34:43;;;;;;;7.70;3.38;;;;;;;;;;5091748;28;20027;-62
2021/12/18 09:37:10;;;;;;;10.60;3.72;;;;;;;;;;5090533;28;20024;-62
2021/12/18 09:39:36;;;;;;;9.52;3.17;;;;;;;;;;5092189;28;20020;-62
2021/12/18 09:42:02;;;;;;;12.98;2.95;;;;;;;;;;5091865;28;20068;-62
2021/12/18 09:44:30;;;;;;;9.65;5.38;;;;;;;;;;5090577;28;20057;-61
2021/12/18 09:46:56;;;;;;;17.55;10.23;;;;;;;;;;5091167;28;20610;-62
2021/12/18 09:49:22;;;;;;;14.18;6.47;;;;;;;;;;5092034;28;20103;-60
2021/12/18 09:51:49;;;;;;;12.75;6.13;;;;;;;;;;5084056;28;20119;-65
2021/12/18 09:54:16;;;;;;;12.45;6.00;;;;;;;;;;5082842;28;20039;-65
2021/12/18 09:56:43;;;;;;;9.10;4.65;;;;;;;;;;5088416;28;20376;-68
2021/12/18 09:59:09;;;;;;;9.73;4.90;;;;;;;;;;5086197;28;20449;-62
2021/12/18 10:01:36;;;;;;;13.20;4.95;;;;;;;;;;5089799;28;20028;-69
2021/12/18 10:04:04;;;;;;;10.65;4.80;;;;;;;;;;5088306;28;20028;-74
2021/12/18 10:06:33;;;;;;;12.77;4.30;;;;;;;;;;5087806;28;20419;-67
2021/12/18 10:08:59;;;;;;;10.55;4.50;;;;;;;;;;5089593;28;20031;-68
2021/12/18 10:11:25;;;;;;;7.25;3.70;;;;;;;;;;5090218;28;20028;-67
2021/12/18 10:13:52;;;;;;;12.05;4.05;;;;;;;;;;5089904;28;20384;-68
2021/12/18 10:16:19;;;;;;;11.05;3.92;;;;;;;;;;5086332;28;20034;-64
2021/12/18 10:18:46;;;;;;;9.77;4.32;;;;;;;;;;5089760;28;20055;-77
2021/12/18 10:21:15;;;;;;;9.48;3.58;;;;;;;;;;5086433;28;20095;-63
2021/12/18 10:23:42;;;;;;;8.10;3.33;;;;;;;;;;5089651;28;20051;-72
2021/12/18 10:26:09;;;;;;;10.45;3.45;;;;;;;;;;5089578;28;20028;-72
2021/12/18 10:28:46;;;;;;;6.32;3.08;;;;;;;;;;5089797;28;20016;-79
2021/12/18 10:31:12;;;;;;;8.15;3.45;;;;;;;;;;5089004;28;20028;-62
2021/12/18 10:33:38;;;;;;;8.98;3.53;;;;;;;;;;5088378;28;20502;-64
2021/12/18 10:36:05;;;;;;;6.68;2.67;;;;;;;;;;5088793;28;20090;-68
2021/12/18 10:38:46;;;;;;;7.13;2.78;;;;;;;;;;5089607;28;20569;-67
2021/12/18 10:41:21;;;;;;;6.22;2.75;;;;;;;;;;5091005;28;20376;-78
2021/12/18 10:44:07;;;;;;;8.15;2.63;;;;;;;;;;5090757;28;20445;-64
2021/12/18 10:46:34;;;;;;;8.63;3.40;;;;;;;;;;5090753;28;20020;-69
2021/12/18 10:49:02;;;;;;;7.53;2.95;;;;;;;;;;5090674;28;20026;-71
2021/12/18 10:51:30;;;;;;;6.97;2.90;;;;;;;;;;5090752;28;20085;-64
2021/12/18 10:54:00;;;;;;;7.20;3.15;;;;;;;;;;5090520;28;20499;-62
2021/12/18 10:56:37;;;;;;;7.43;2.80;;;;;;;;;;5090858;28;20118;-65
2021/12/18 10:59:04;;;;;;;7.20;3.00;;;;;;;;;;5092580;28;20504;-67
2021/12/18 11:01:30;;;;;;;7.20;2.80;;;;;;;;;;5093975;28;20024;-64
2021/12/18 11:03:56;;;;;;;8.45;2.55;;;;;;;;;;5092662;28;20031;-64
2021/12/18 11:06:23;;;;;;;7.35;2.50;;;;;;;;;;5094832;28;20024;-61
2021/12/18 11:08:52;;;;;;;7.82;2.65;;;;;;;;;;5094589;28;20065;-67
2021/12/18 11:14:10;;;;;;;7.90;2.53;;;;;;;;;;5092684;28;20066;-63
2021/12/18 11:16:36;;;;;;;7.20;2.65;;;;;;;;;;5090639;28;20031;-63
2021/12/18 11:19:06;;;;;;;4.60;2.13;;;;;;;;;;5092216;28;20102;-75
2021/12/18 11:21:33;;;;;;;5.50;2.10;;;;;;;;;;5093722;28;20476;-64
2021/12/18 11:24:09;;;;;;;6.35;1.85;;;;;;;;;;5094151;28;20035;-65
2021/12/18 11:26:41;;;;;;;4.20;2.00;;;;;;;;;;5091023;28;20036;-80
2021/12/18 11:29:10;;;;;;;7.25;2.58;;;;;;;;;;5084930;28;20015;-77
2021/12/18 11:31:36;;;;;;;5.93;2.15;;;;;;;;;;5093141;28;20035;-64
2021/12/18 11:34:02;;;;;;;7.63;2.10;;;;;;;;;;5090352;28;20020;-77
2021/12/18 11:36:28;;;;;;;8.00;2.10;;;;;;;;;;5093467;28;20055;-77
2021/12/18 11:38:55;;;;;;;8.07;2.22;;;;;;;;;;5086536;28;20040;-66
2021/12/18 11:41:21;;;;;;;6.50;2.20;;;;;;;;;;5085482;28;20028;-79
2021/12/18 11:43:47;;;;;;;19.92;4.63;;;;;;;;;;5089099;28;20078;-68
2021/12/18 11:46:28;;;;;;;10.02;3.22;;;;;;;;;;5081043;28;20549;-73
2021/12/18 11:48:56;;;;;;;17.58;3.38;;;;;;;;;;5087549;28;20020;-62
2021/12/18 11:51:22;;;;;;;12.77;2.53;;;;;;;;;;5089472;28;20028;-62
2021/12/18 11:53:48;;;;;;;15.80;3.28;;;;;;;;;;5093551;28;20082;-64
2021/12/18 11:56:14;;;;;;;16.75;3.70;;;;;;;;;;5093280;28;20063;-61
2021/12/18 11:58:45;;;;;;;13.70;3.28;;;;;;;;;;5092497;28;20124;-65
2021/12/18 12:01:17;;;;;;;21.95;3.08;;;;;;;;;;5093665;28;20028;-80
2021/12/18 12:03:55;;;;;;;6.90;2.75;;;;;;;;;;5093896;28;20095;-62
2021/12/18 12:06:31;;;;;;;10.77;3.13;;;;;;;;;;5093932;28;20021;-64
2021/12/18 12:11:51;;;;;;;10.45;3.13;;;;;;;;;;5093964;28;20036;-68
2021/12/18 12:14:19;;;;;;;12.05;3.55;;;;;;;;;;5093442;28;20051;-70
2021/12/18 12:16:45;;;;;;;7.50;2.53;;;;;;;;;;5093593;28;20012;-62
2021/12/18 12:19:14;;;;;;;8.75;2.90;;;;;;;;;;5093589;28;20024;-62
2021/12/18 12:21:47;;;;;;;11.88;2.72;;;;;;;;;;5093506;28;20027;-62
2021/12/18 12:24:14;;;;;;;5.78;2.45;;;;;;;;;;5093296;28;20115;-66
2021/12/18 12:26:40;;;;;;;13.02;3.67;;;;;;;;;;5093377;28;20027;-62
2021/12/18 12:29:07;;;;;;;8.85;3.03;;;;;;;;;;5093285;28;20062;-72
2021/12/18 12:31:34;;;;;;;7.90;2.53;;;;;;;;;;5093311;28;20103;-61
2021/12/18 12:34:19;;;;;;;9.70;3.08;;;;;;;;;;5093272;28;20559;-62
2021/12/18 12:36:45;;;;;;;7.55;2.40;;;;;;;;;;5093042;28;20430;-62
2021/12/18 12:39:14;;;;;;;7.85;2.45;;;;;;;;;;5093196;28;20125;-62
2021/12/18 12:41:42;;;;;;;8.18;2.55;;;;;;;;;;5093155;28;20053;-62
2021/12/18 12:44:28;;;;;;;6.65;2.60;;;;;;;;;;5091729;28;20016;-62
2021/12/18 12:47:14;;;;;;;8.88;2.42;;;;;;;;;;5092867;28;20264;-61
2021/12/18 12:49:40;;;;;;;9.20;2.47;;;;;;;;;;5092783;28;20036;-61
2021/12/18 12:52:09;;;;;;;5.82;2.10;;;;;;;;;;5092910;28;20363;-62
2021/12/18 12:54:41;;;;;;;7.13;2.60;;;;;;;;;;5091485;28;20055;-79
2021/12/18 12:57:27;;;;;;;7.85;2.20;;;;;;;;;;5092980;28;20028;-69
2021/12/18 12:59:59;;;;;;;7.80;2.20;;;;;;;;;;5092843;28;20031;-62
2021/12/18 13:02:26;;;;;;;5.88;2.10;;;;;;;;;;5091228;28;20016;-71
2021/12/18 13:05:22;;;;;;;6.15;2.47;;;;;;;;;;5092745;28;20028;-62
2021/12/18 13:07:52;;;;;;;5.97;2.42;;;;;;;;;;5079268;28;20527;-67
2021/12/18 13:10:20;;;;;;;7.18;2.38;;;;;;;;;;5092641;28;20107;-72
2021/12/18 13:12:53;;;;;;;5.95;2.30;;;;;;;;;;5092388;28;20035;-62
2021/12/18 13:15:19;;;;;;;6.90;2.70;;;;;;;;;;5090844;28;20043;-76
2021/12/18 13:17:45;;;;;;;4.72;2.00;;;;;;;;;;5091312;28;20377;-63
2021/12/18 13:20:11;;;;;;;5.30;2.20;;;;;;;;;;5091910;28;20028;-61
2021/12/18 13:22:37;;;;;;;6.15;2.45;;;;;;;;;;5091777;28;20027;-72
2021/12/18 13:25:07;;;;;;;6.97;2.38;;;;;;;;;;5092422;28;20074;-61
2021/12/18 13:27:34;;;;;;;7.25;2.38;;;;;;;;;;5092405;28;20024;-62
2021/12/18 13:30:15;;;;;;;6.65;2.38;;;;;;;;;;5092242;28;20024;-61
2021/12/18 13:33:01;;;;;;;4.97;2.22;;;;;;;;;;5092237;28;20020;-66
2021/12/18 13:35:29;;;;;;;7.20;2.17;;;;;;;;;;5091846;28;20114;-65
2021/12/18 13:38:03;;;;;;;5.97;2.55;;;;;;;;;;5092115;28;20051;-64
2021/12/18 13:40:30;;;;;;;6.30;2.22;;;;;;;;;;5092265;28;20103;-62
2021/12/18 13:43:06;;;;;;;4.53;2.00;;;;;;;;;;5092045;28;20111;-65
2021/12/18 13:45:33;;;;;;;6.10;2.20;;;;;;;;;;5092011;28;20380;-61
2021/12/18 13:48:10;;;;;;;4.68;2.08;;;;;;;;;;5090776;28;20089;-62
2021/12/18 13:50:36;;;;;;;6.05;2.10;;;;;;;;;;5090287;28;20024;-68
2021/12/18 13:53:05;;;;;;;6.88;2.58;;;;;;;;;;5092082;28;20089;-76
2021/12/18 13:55:31;;;;;;;6.18;2.38;;;;;;;;;;5091751;28;20365;-62
2021/12/18 13:57:58;;;;;;;7.00;1.95;;;;;;;;;;5091638;28;20016;-61
2021/12/18 14:00:24;;;;;;;4.97;2.42;;;;;;;;;;5091877;28;20028;-62
2021/12/18 14:02:50;;;;;;;4.65;2.10;;;;;;;;;;5091797;28;20024;-71
2021/12/18 14:05:16;;;;;;;5.07;2.40;;;;;;;;;;5092170;28;20028;-80
2021/12/18 14:07:43;;;;;;;6.05;2.40;;;;;;;;;;5091943;28;20500;-69
2021/12/18 14:10:09;;;;;;;6.75;2.40;;;;;;;;;;5090333;28;20028;-61
2021/12/18 14:12:36;;;;;;;6.25;2.42;;;;;;;;;;5091487;28;20039;-66
2021/12/18 14:15:02;;;;;;;3.92;1.80;;;;;;;;;;5091355;28;20079;-61
2021/12/18 14:17:28;;;;;;;7.03;2.60;;;;;;;;;;5091684;28;20020;-61
2021/12/18 14:20:01;;;;;;;4.15;2.03;;;;;;;;;;5091524;28;20436;-67
2021/12/18 14:22:30;;;;;;;6.03;2.35;;;;;;;;;;5091633;28;20021;-61
2021/12/18 14:25:01;;;;;;;4.95;2.28;;;;;;;;;;5091451;28;20031;-62
2021/12/18 14:27:45;;;;;;;4.72;2.03;;;;;;;;;;5091495;28;20382;-61
2021/12/18 14:30:14;;;;;;;4.75;2.22;;;;;;;;;;5091279;28;20103;-61
2021/12/18 14:32:41;;;;;;;5.85;2.30;;;;;;;;;;5093223;28;20043;-62
2021/12/18 14:35:10;;;;;;;6.00;2.60;;;;;;;;;;5095368;28;20036;-62
2021/12/18 14:37:46;;;;;;;6.72;2.53;;;;;;;;;;5094196;28;20031;-61
2021/12/18 14:40:16;;;;;;;7.07;2.90;;;;;;;;;;5095479;28;20027;-61
2021/12/18 14:42:54;;;;;;;6.35;2.60;;;;;;;;;;5095483;28;20090;-61
2021/12/18 14:45:22;;;;;;;6.55;2.15;;;;;;;;;;5095375;28;20020;-75
2021/12/18 14:47:52;;;;;;;4.82;2.42;;;;;;;;;;5095177;28;20016;-61
2021/12/18 14:50:24;;;;;;;6.15;2.28;;;;;;;;;;5095269;28;20094;-61
2021/12/18 14:52:53;;;;;;;4.82;2.20;;;;;;;;;;5095279;28;20016;-61
2021/12/18 14:55:20;;;;;;;5.45;2.33;;;;;;;;;;5095025;28;20032;-61
2021/12/18 14:57:57;;;;;;;4.32;2.00;;;;;;;;;;5095076;28;20399;-71
2021/12/18 15:00:28;;;;;;;5.03;2.10;;;;;;;;;;5094932;28;20058;-65
2021/12/18 15:02:54;;;;;;;7.47;2.88;;;;;;;;;;5095013;28;20606;-62
2021/12/18 15:05:20;;;;;;;6.10;2.75;;;;;;;;;;5094983;28;20027;-76
2021/12/18 15:07:57;;;;;;;5.15;2.50;;;;;;;;;;5095271;28;20410;-61
2021/12/18 15:10:23;;;;;;;8.15;2.83;;;;;;;;;;5094900;28;20529;-80
2021/12/18 15:12:49;;;;;;;5.78;2.50;;;;;;;;;;5094987;28;20506;-61
2021/12/18 15:15:15;;;;;;;7.20;2.88;;;;;;;;;;5094568;28;20148;-61
2021/12/18 15:17:41;;;;;;;5.15;2.35;;;;;;;;;;5089610;28;20066;-76
2021/12/18 15:20:07;;;;;;;6.43;2.60;;;;;;;;;;5094853;28;20024;-62
2021/12/18 15:22:33;;;;;;;6.47;2.67;;;;;;;;;;5094787;28;20027;-61
2021/12/18 15:24:59;;;;;;;6.13;3.00;;;;;;;;;;5093219;28;20024;-61